Weather reports worldwide

Advertisment
Sciacca, Italy (16436): temperature & dewpoint: 09.12.2018 07:00:00 - 15.12.2018 07:00:00 (CET)Sciacca, Italy (16436): wind speed: 09.12.2018 07:00:00 - 15.12.2018 07:00:00 (CET)Sciacca, Italy (16436): wind direction: 09.12.2018 07:00:00 - 15.12.2018 07:00:00 (CET)Sciacca, Italy (16436): reduced air pressure: 09.12.2018 07:00:00 - 15.12.2018 07:00:00 (CET)Sciacca, Italy (16436): precipitation: 09.12.2018 07:00:00 - 15.12.2018 07:00:00 (CET)
Date & Time tt [°C] td [°C] ff [km/h] ff [kn] dd ppp [hPa] rr [mm]
15.12.2018 07:00:00 - - - - - - -
15.12.2018 06:00:00 12,6 11,6 15 8 NW 1020,9 -
15.12.2018 05:00:00 12,2 11,1 8 4 NW 1020,8 -
15.12.2018 04:00:00 9,7 9,1 0 0 N 1020,5 -
15.12.2018 03:00:00 9,6 9,0 0 0 N 1020,3 -
15.12.2018 02:00:00 9,8 9,2 0 0 N 1020,1 -
15.12.2018 01:00:00 10,7 9,9 0 0 N 1019,7 0,0
15.12.2018 00:00:00 11,0 10,2 8 4 NNE 1019,5 -
14.12.2018 23:00:00 11,9 11,1 0 0 N 1019,6 -
14.12.2018 22:00:00 12,4 11,6 0 0 N 1019,3 -
14.12.2018 21:00:00 12,6 11,6 2 1 SW 1019,2 -
14.12.2018 20:00:00 12,9 11,8 0 0 N 1018,6 -
14.12.2018 19:00:00 13,6 12,5 11 6 E 1018,1 0,0
14.12.2018 18:00:00 14,3 13,1 2 1 E 1017,6 -
14.12.2018 17:00:00 14,8 13,6 8 4 E 1017,8 -
14.12.2018 16:00:00 15,3 13,9 8 4 E 1017,9 -
14.12.2018 15:00:00 15,6 14,1 11 6 ESE 1017,9 -
14.12.2018 14:00:00 15,7 14,3 15 8 ESE 1017,7 -
14.12.2018 13:00:00 16,1 14,7 13 7 E 1018,1 0,0
14.12.2018 12:00:00 16,1 14,7 15 8 SE 1018,8 -
14.12.2018 11:00:00 16,4 15,2 15 8 ESE 1019,7 -
14.12.2018 10:00:00 16,2 15,3 11 6 ESE 1020,1 -
14.12.2018 09:00:00 14,0 13,5 9 5 E 1020,5 -
14.12.2018 08:00:00 13,7 13,2 11 6 E 1020,0 -
14.12.2018 07:00:00 13,6 13,2 13 7 E 1020,4 0,0
14.12.2018 06:00:00 13,3 12,9 9 5 E 1020,6 -
14.12.2018 05:00:00 12,7 12,2 4 2 E 1021,0 -
14.12.2018 04:00:00 13,0 12,5 9 5 E 1021,6 -
14.12.2018 03:00:00 12,7 12,2 8 4 ENE 1022,0 -
14.12.2018 02:00:00 12,7 12,4 4 2 E 1022,4 -
14.12.2018 01:00:00 12,5 12,2 5 3 ENE 1022,9 0,0
14.12.2018 00:00:00 12,3 12,0 0 0 N 1023,3 -
13.12.2018 23:00:00 12,5 12,0 8 4 ENE 1023,4 -
13.12.2018 22:00:00 12,6 12,3 5 3 NE 1023,9 -
13.12.2018 21:00:00 12,5 12,3 0 0 N 1023,9 -
13.12.2018 20:00:00 12,2 11,9 0 0 N 1023,8 -
13.12.2018 19:00:00 12,6 12,1 0 0 N 1023,5 0,0
13.12.2018 18:00:00 12,7 11,9 0 0 N 1024,0 -
13.12.2018 17:00:00 13,9 12,9 0 0 N 1023,5 -
13.12.2018 16:00:00 14,5 13,5 0 0 N 1023,8 -
13.12.2018 15:00:00 14,9 13,9 9 5 WSW 1023,9 -
13.12.2018 14:00:00 15,0 14,0 9 5 WSW 1024,0 -
13.12.2018 13:00:00 15,3 14,3 13 7 WSW 1024,7 0,0
13.12.2018 12:00:00 15,2 14,3 15 8 WSW 1025,4 -
13.12.2018 11:00:00 14,7 13,8 15 8 WSW 1026,1 -
13.12.2018 10:00:00 14,4 14,2 16 9 W 1026,6 -
13.12.2018 09:00:00 13,9 13,8 11 6 WSW 1026,1 -
13.12.2018 08:00:00 13,0 12,8 5 3 W 1026,3 -
13.12.2018 07:00:00 13,2 13,0 15 8 WSW 1026,1 0,0
13.12.2018 06:00:00 12,8 12,6 11 6 WSW 1025,9 -
13.12.2018 05:00:00 12,5 12,3 5 3 W 1026,4 -
13.12.2018 04:00:00 12,8 12,8 11 6 WSW 1027,2 -
13.12.2018 03:00:00 12,7 12,7 13 7 WSW 1027,7 -
13.12.2018 02:00:00 10,9 10,6 0 0 N 1028,0 -
13.12.2018 01:00:00 10,7 10,4 0 0 N 1028,3 0,0
13.12.2018 00:00:00 10,7 10,2 0 0 N 1028,9 -
12.12.2018 23:00:00 10,8 10,3 0 0 N 1029,1 -
12.12.2018 22:00:00 10,7 10,1 0 0 N 1029,2 -
12.12.2018 21:00:00 10,8 10,0 0 0 N 1029,3 -
12.12.2018 20:00:00 11,2 9,9 0 0 N 1029,5 -
12.12.2018 19:00:00 12,3 10,9 5 3 NW 1029,3 0,0
12.12.2018 18:00:00 11,9 10,5 5 3 WNW 1029,0 -
12.12.2018 17:00:00 12,1 10,7 5 3 WSW 1028,7 -
12.12.2018 16:00:00 13,1 12,6 2 1 S 1028,8 -
12.12.2018 15:00:00 12,4 11,9 2 1 SE 1029,1 -
12.12.2018 14:00:00 11,7 11,1 5 3 NE 1029,1 -
12.12.2018 13:00:00 12,1 11,2 0 0 N 1029,9 0,0
12.12.2018 12:00:00 12,6 11,0 0 0 N 1030,7 -
12.12.2018 11:00:00 12,9 11,1 0 0 N 1031,0 -
12.12.2018 10:00:00 13,0 12,2 0 0 N 1031,4 -
12.12.2018 09:00:00 10,2 9,7 0 0 N 1031,4 -
12.12.2018 08:00:00 8,6 8,1 0 0 N 1031,2 -
12.12.2018 07:00:00 8,0 7,4 0 0 N 1031,2 0,0
12.12.2018 06:00:00 8,8 8,3 0 0 N 1030,8 -
12.12.2018 05:00:00 8,0 7,4 0 0 N 1030,9 -
12.12.2018 04:00:00 7,9 7,3 0 0 N 1031,1 -
12.12.2018 03:00:00 8,4 7,6 - - - 1031,1 -
12.12.2018 02:00:00 9,4 8,5 - - - 1030,9 -
12.12.2018 01:00:00 9,4 8,5 - - - 1031,0 0,0
12.12.2018 00:00:00 9,3 7,9 0 0 N 1031,1 -
11.12.2018 23:00:00 11,2 9,1 0 0 N 1031,2 -
11.12.2018 22:00:00 11,3 8,7 2 1 NNW 1030,9 -
11.12.2018 21:00:00 10,6 8,3 0 0 N 1030,7 -
11.12.2018 20:00:00 11,6 8,8 2 1 NW 1030,3 -
11.12.2018 19:00:00 10,7 8,8 2 1 NW 1030,2 0,0
11.12.2018 18:00:00 11,3 9,5 8 4 NNW 1029,8 -
11.12.2018 17:00:00 12,0 9,9 8 4 NNW 1029,2 -
11.12.2018 16:00:00 12,6 11,0 2 1 N 1029,2 -
11.12.2018 15:00:00 11,0 9,6 13 7 N 1029,3 -
11.12.2018 14:00:00 11,8 10,2 4 2 NNW 1029,0 -
11.12.2018 13:00:00 11,7 10,1 9 5 WNW 1029,6 0,0
11.12.2018 12:00:00 14,4 11,9 16 9 W 1029,2 -
11.12.2018 11:00:00 13,7 10,7 2 1 ESE 1030,2 -
11.12.2018 10:00:00 12,9 9,5 4 2 WNW 1030,5 -
11.12.2018 09:00:00 13,3 9,7 4 2 WSW 1030,0 -
11.12.2018 08:00:00 11,5 8,7 5 3 W 1029,8 -
11.12.2018 07:00:00 11,3 8,5 4 2 N 1029,4 0,0
11.12.2018 06:00:00 11,9 8,9 11 6 NW 1028,7 -
11.12.2018 05:00:00 11,6 8,6 4 2 SE 1028,6 -
11.12.2018 04:00:00 11,6 8,4 - - - 1028,4 -
11.12.2018 03:00:00 11,9 9,1 - - - 1028,8 -
11.12.2018 02:00:00 12,0 8,8 5 3 NW 1028,7 -
11.12.2018 01:00:00 11,9 9,1 4 2 NNE 1028,4 0,0
11.12.2018 00:00:00 11,7 10,1 4 2 W 1028,7 -
10.12.2018 23:00:00 12,0 9,7 4 2 SW 1028,7 -
10.12.2018 22:00:00 12,2 9,7 4 2 SSE 1028,6 -
10.12.2018 21:00:00 12,3 10,0 9 5 NW 1028,4 -
10.12.2018 20:00:00 12,3 10,7 8 4 SE 1028,0 -
10.12.2018 19:00:00 12,7 11,1 18 10 WSW 1027,6 0,0
10.12.2018 18:00:00 12,8 11,2 18 10 WSW 1027,8 -
10.12.2018 17:00:00 13,5 11,0 18 10 WSW 1027,3 -
10.12.2018 16:00:00 14,5 8,2 24 13 WSW 1027,3 -
10.12.2018 15:00:00 15,4 11,0 26 14 W 1027,1 -
10.12.2018 14:00:00 15,2 11,2 26 14 W 1027,4 -
10.12.2018 13:00:00 15,8 9,2 26 14 W 1027,5 0,0
10.12.2018 12:00:00 15,3 11,8 29 16 W 1028,4 -
10.12.2018 11:00:00 15,4 11,7 18 10 WSW 1028,8 -
10.12.2018 10:00:00 14,5 12,5 13 7 W 1029,3 -
10.12.2018 09:00:00 13,4 11,1 4 2 ENE 1028,5 -
10.12.2018 08:00:00 13,0 10,5 4 2 ESE 1028,5 -
10.12.2018 07:00:00 12,8 11,0 13 7 SSW 1027,9 0,0
10.12.2018 06:00:00 13,7 12,1 28 15 W 1027,5 -
10.12.2018 05:00:00 13,8 12,2 28 15 W 1027,2 -
10.12.2018 04:00:00 14,2 12,9 26 14 W 1027,4 -
10.12.2018 03:00:00 14,4 12,9 24 13 W 1027,8 -
10.12.2018 02:00:00 14,8 11,7 31 17 ESE 1028,2 -
10.12.2018 01:00:00 14,5 13,2 21 11 WSW 1028,5 0,0
10.12.2018 00:00:00 14,4 13,2 16 9 NNE 1029,5 -
09.12.2018 23:00:00 14,4 13,2 39 21 W 1029,4 -
09.12.2018 22:00:00 14,5 13,2 44 24 W 1029,9 -
09.12.2018 21:00:00 14,4 13,1 42 23 W 1030,0 -
09.12.2018 20:00:00 14,4 13,2 44 24 W 1029,6 -
09.12.2018 19:00:00 14,1 13,1 24 13 W 1029,7 0,0
09.12.2018 18:00:00 14,3 13,3 41 22 W 1029,7 -
09.12.2018 17:00:00 14,6 13,3 28 15 W 1029,5 -
09.12.2018 16:00:00 15,2 13,7 26 14 W 1029,5 -
09.12.2018 15:00:00 15,2 14,0 16 9 W 1029,7 -
09.12.2018 14:00:00 15,5 14,1 24 13 W 1030,1 -
09.12.2018 13:00:00 16,2 12,5 13 7 WSW 1030,5 0,0
09.12.2018 12:00:00 14,8 12,6 18 10 W 1031,4 -
09.12.2018 11:00:00 15,1 12,2 18 10 W 1032,3 -
09.12.2018 10:00:00 14,2 12,4 13 7 W 1032,9 -
09.12.2018 09:00:00 13,0 10,9 4 2 ESE 1032,8 -
09.12.2018 08:00:00 12,2 10,6 9 5 NNW 1032,7 -
09.12.2018 07:00:00 11,7 10,1 - - - 1032,3 0,0

tt = temperature
td = dewpoint
ff = wind speed
dd = wind direction
ppp = reduced air pressure
rr = precipitation

Next stations